Seabourn Pride — C6FR5 — position and weather

sailwx.info

Track history (hours):
 
Tides and Currents Weather Stations Pressure Air Temp Water Temp Dewpoint Dewpoint Depression Visibility Wind Speed Wind Dir Waves Ship Positions

Seabourn Pride

Operator: Cunard Seabourn

Last reported at 2017-Nov-10 00:01 UTC. Time now 2017-Nov-21 08:19 UTC.
Position N 38°30' W 010°07'.
Warning: this ship's position is 11 days out of date.

Length 134 m; draft 5.6 m.

Type: Ship. MMSI: 311084000.

Date/timePositionNaut miles runAvg speedWind from/ knotsBaromVisibWave heightAir tempDewpointWater temp
2017-Nov-10 00:01N 38°30' W 010°07'0 9.6
2017-Nov-10 00:00N 38°30' W 010°06'510.2
2017-Nov-09 23:30N 38°31' W 010°00'510.5
2017-Nov-09 23:00N 38°32' W 009°54'510.1
2017-Nov-09 22:30N 38°33' W 009°47'510.0
2017-Nov-09 22:01N 38°34' W 009°41'510.3
2017-Nov-09 21:30N 38°35' W 009°34'510.0
2017-Nov-09 21:00N 38°36' W 009°28'510.2
2017-Nov-09 20:30N 38°38' W 009°22'510.9
2017-Nov-09 20:00N 38°41' W 009°17'5 9.8
2017-Nov-09 19:30N 38°41' W 009°11'3 5.3
2017-Nov-09 18:59N 38°43' W 009°07'0 0.0
2017-Nov-09 18:26N 38°43' W 009°07'0 0.0
2017-Nov-09 17:59N 38°43' W 009°07'0 0.0
2017-Nov-09 17:28N 38°43' W 009°07'0 0.0
2017-Nov-09 16:59N 38°43' W 009°07'0 0.0
2017-Nov-09 16:30N 38°43' W 009°07'0 0.0
2017-Nov-09 16:00N 38°43' W 009°07'0 0.0
2017-Nov-09 15:30N 38°43' W 009°07'0 0.0
2017-Nov-09 15:00N 38°43' W 009°07'0 0.0
2017-Nov-09 14:30N 38°43' W 009°07'0 0.0
2017-Nov-09 14:00N 38°43' W 009°07'0 0.0
2017-Nov-09 13:30N 38°43' W 009°07'0 0.0
2017-Nov-09 13:00N 38°43' W 009°07'0 0.0
2017-Nov-09 12:30N 38°43' W 009°07'0 0.0
2017-Nov-09 12:00N 38°43' W 009°07'0 0.0
2017-Nov-09 11:30N 38°43' W 009°07'0 0.0
2017-Nov-09 11:00N 38°43' W 009°07'0 0.0
2017-Nov-09 10:30N 38°43' W 009°07'0 0.0
2017-Nov-09 10:00N 38°43' W 009°07'0 0.0
2017-Nov-09 09:30N 38°43' W 009°07'0 0.0
2017-Nov-09 09:00N 38°43' W 009°07'0 0.0
2017-Nov-09 08:30N 38°43' W 009°07'0 0.0
2017-Nov-09 08:00N 38°43' W 009°07'0 0.0
2017-Nov-09 07:28N 38°43' W 009°07'0 0.0
2017-Nov-09 07:00N 38°43' W 009°07'2 3.4
2017-Nov-09 06:30N 38°42' W 009°09'510.2
2017-Nov-09 06:00N 38°41' W 009°16'4 7.4
2017-Nov-09 05:30N 38°39' W 009°20'3 5.8
2017-Nov-09 05:00N 38°36' W 009°20'3 5.6
2017-Nov-09 04:30N 38°35' W 009°17'2 4.9
2017-Nov-09 04:00N 38°33' W 009°15'2 4.1
2017-Nov-09 03:30N 38°31' W 009°16'2 4.4
2017-Nov-09 03:00N 38°30' W 009°18'2 4.1
2017-Nov-09 02:30N 38°28' W 009°20'2 3.4
2017-Nov-09 02:00N 38°27' W 009°21'2 3.9
2017-Nov-09 01:30N 38°25' W 009°19'2 3.9
2017-Nov-09 01:00N 38°24' W 009°17'2 4.2
2017-Nov-09 00:30N 38°22' W 009°18'3 5.1
2017-Nov-09 00:00N 38°19' W 009°18'3 5.8
2017-Nov-08 23:30N 38°16' W 009°18'3 5.5
2017-Nov-08 23:00N 38°14' W 009°17'3 5.4
2017-Nov-08 22:30N 38°11' W 009°16'3 5.2
2017-Nov-08 22:00N 38°09' W 009°15'3 5.2
2017-Nov-08 21:30N 38°06' W 009°15'3 5.1
2017-Nov-08 21:00N 38°03' W 009°14'3 5.2
2017-Nov-08 20:30N 38°01' W 009°13'3 5.2
2017-Nov-08 20:00N 37°58' W 009°13'3 5.3
2017-Nov-08 19:30N 37°56' W 009°13'3 5.7
2017-Nov-08 19:00N 37°53' W 009°15'3 6.2
2017-Nov-08 18:30N 37°50' W 009°16'3 6.4
2017-Nov-08 18:00N 37°47' W 009°17'3 6.5
2017-Nov-08 17:30N 37°44' W 009°19'76 7.1
2017-Nov-08 06:48N 36°44' W 008°19'  
2017-Nov-03 18:10N 37°11' W 000°54'210.1
2017-Nov-03 18:00N 37°12' W 000°52'510.0
2017-Nov-03 17:29N 37°15' W 000°47'17 9.8
2017-Nov-03 15:44N 37°26' W 000°30'3 9.8
2017-Nov-03 15:29N 37°27' W 000°27'5 9.8
2017-Nov-03 15:00N 37°30' W 000°22'5 9.8
2017-Nov-03 14:27N 37°33' W 000°16'169 9.0
2017-Nov-02 19:46N 39°22' E 002°27'2 9.3
2017-Nov-02 19:30N 39°24' E 002°29'5 9.4
2017-Nov-02 19:00N 39°27' E 002°33'5 9.4
2017-Nov-02 18:30N 39°31' E 002°37'2 4.2
2017-Nov-02 18:00N 39°33' E 002°38'0 0.0
2017-Nov-02 17:30N 39°33' E 002°38'0 0.0
2017-Nov-02 17:00N 39°33' E 002°38'0 0.0
2017-Nov-02 16:30N 39°33' E 002°38'0 0.0
2017-Nov-02 16:00N 39°33' E 002°38'0 0.0
2017-Nov-02 15:30N 39°33' E 002°38'0 0.0
2017-Nov-02 14:56N 39°33' E 002°38'0 0.0
2017-Nov-02 14:28N 39°33' E 002°38'0 0.0
2017-Nov-02 14:00N 39°33' E 002°38'0 0.0
2017-Nov-02 13:29N 39°33' E 002°38'0 0.0
2017-Nov-02 12:59N 39°33' E 002°38'0 0.0
2017-Nov-02 12:30N 39°33' E 002°38'0 0.0
2017-Nov-02 11:58N 39°33' E 002°38'0 0.0
2017-Nov-02 11:28N 39°33' E 002°38'0 0.0
2017-Nov-02 10:58N 39°33' E 002°38'0 0.0
2017-Nov-02 10:31N 39°33' E 002°38'0 0.0
2017-Nov-02 10:01N 39°33' E 002°38'0 0.0
2017-Nov-02 09:30N 39°33' E 002°38'0 0.0
2017-Nov-02 09:01N 39°33' E 002°38'0 0.0
2017-Nov-02 08:27N 39°33' E 002°38'0 0.0
2017-Nov-02 08:00N 39°33' E 002°38'0 0.0
2017-Nov-02 07:30N 39°33' E 002°38'0 0.0
2017-Nov-02 07:00N 39°33' E 002°38'1 2.7
2017-Nov-02 06:30N 39°32' E 002°38'510.9
2017-Nov-02 06:00N 39°28' E 002°34'5 9.8
2017-Nov-02 05:30N 39°27' E 002°28'  
2017-Oct-31 00:26N 42°52' E 004°19'  
Track history (hours):
 
Tides and Currents Weather Stations Pressure Air Temp Water Temp Dewpoint Dewpoint Depression Visibility Wind Speed Wind Dir Waves Ship Positions

Seabourn Pride

Operator: Cunard Seabourn

Last reported at 2017-Nov-10 00:01 UTC. Time now 2017-Nov-21 08:19 UTC.
Position N 38°30' W 010°07'.
Warning: this ship's position is 11 days out of date.

Length 134 m; draft 5.6 m.

Type: Ship. MMSI: 311084000.

Date/timePositionNaut miles runAvg speedWind from/ knotsBaromVisibWave heightAir tempDewpointWater temp
2017-Nov-10 00:01N 38°30' W 010°07'0 9.6
2017-Nov-10 00:00N 38°30' W 010°06'510.2
2017-Nov-09 23:30N 38°31' W 010°00'510.5
2017-Nov-09 23:00N 38°32' W 009°54'510.1
2017-Nov-09 22:30N 38°33' W 009°47'510.0
2017-Nov-09 22:01N 38°34' W 009°41'510.3
2017-Nov-09 21:30N 38°35' W 009°34'510.0
2017-Nov-09 21:00N 38°36' W 009°28'510.2
2017-Nov-09 20:30N 38°38' W 009°22'510.9
2017-Nov-09 20:00N 38°41' W 009°17'5 9.8
2017-Nov-09 19:30N 38°41' W 009°11'3 5.3
2017-Nov-09 18:59N 38°43' W 009°07'0 0.0
2017-Nov-09 18:26N 38°43' W 009°07'0 0.0
2017-Nov-09 17:59N 38°43' W 009°07'0 0.0
2017-Nov-09 17:28N 38°43' W 009°07'0 0.0
2017-Nov-09 16:59N 38°43' W 009°07'0 0.0
2017-Nov-09 16:30N 38°43' W 009°07'0 0.0
2017-Nov-09 16:00N 38°43' W 009°07'0 0.0
2017-Nov-09 15:30N 38°43' W 009°07'0 0.0
2017-Nov-09 15:00N 38°43' W 009°07'0 0.0
2017-Nov-09 14:30N 38°43' W 009°07'0 0.0
2017-Nov-09 14:00N 38°43' W 009°07'0 0.0
2017-Nov-09 13:30N 38°43' W 009°07'0 0.0
2017-Nov-09 13:00N 38°43' W 009°07'0 0.0
2017-Nov-09 12:30N 38°43' W 009°07'0 0.0
2017-Nov-09 12:00N 38°43' W 009°07'0 0.0
2017-Nov-09 11:30N 38°43' W 009°07'0 0.0
2017-Nov-09 11:00N 38°43' W 009°07'0 0.0
2017-Nov-09 10:30N 38°43' W 009°07'0 0.0
2017-Nov-09 10:00N 38°43' W 009°07'0 0.0
2017-Nov-09 09:30N 38°43' W 009°07'0 0.0
2017-Nov-09 09:00N 38°43' W 009°07'0 0.0
2017-Nov-09 08:30N 38°43' W 009°07'0 0.0
2017-Nov-09 08:00N 38°43' W 009°07'0 0.0
2017-Nov-09 07:28N 38°43' W 009°07'0 0.0
2017-Nov-09 07:00N 38°43' W 009°07'2 3.4
2017-Nov-09 06:30N 38°42' W 009°09'510.2
2017-Nov-09 06:00N 38°41' W 009°16'4 7.4
2017-Nov-09 05:30N 38°39' W 009°20'3 5.8
2017-Nov-09 05:00N 38°36' W 009°20'3 5.6
2017-Nov-09 04:30N 38°35' W 009°17'2 4.9
2017-Nov-09 04:00N 38°33' W 009°15'2 4.1
2017-Nov-09 03:30N 38°31' W 009°16'2 4.4
2017-Nov-09 03:00N 38°30' W 009°18'2 4.1
2017-Nov-09 02:30N 38°28' W 009°20'2 3.4
2017-Nov-09 02:00N 38°27' W 009°21'2 3.9
2017-Nov-09 01:30N 38°25' W 009°19'2 3.9
2017-Nov-09 01:00N 38°24' W 009°17'2 4.2
2017-Nov-09 00:30N 38°22' W 009°18'3 5.1
2017-Nov-09 00:00N 38°19' W 009°18'3 5.8
2017-Nov-08 23:30N 38°16' W 009°18'3 5.5
2017-Nov-08 23:00N 38°14' W 009°17'3 5.4
2017-Nov-08 22:30N 38°11' W 009°16'3 5.2
2017-Nov-08 22:00N 38°09' W 009°15'3 5.2
2017-Nov-08 21:30N 38°06' W 009°15'3 5.1
2017-Nov-08 21:00N 38°03' W 009°14'3 5.2
2017-Nov-08 20:30N 38°01' W 009°13'3 5.2
2017-Nov-08 20:00N 37°58' W 009°13'3 5.3
2017-Nov-08 19:30N 37°56' W 009°13'3 5.7
2017-Nov-08 19:00N 37°53' W 009°15'3 6.2
2017-Nov-08 18:30N 37°50' W 009°16'3 6.4
2017-Nov-08 18:00N 37°47' W 009°17'3 6.5
2017-Nov-08 17:30N 37°44' W 009°19'76 7.1
2017-Nov-08 06:48N 36°44' W 008°19'  
2017-Nov-03 18:10N 37°11' W 000°54'210.1
2017-Nov-03 18:00N 37°12' W 000°52'510.0
2017-Nov-03 17:29N 37°15' W 000°47'17 9.8
2017-Nov-03 15:44N 37°26' W 000°30'3 9.8
2017-Nov-03 15:29N 37°27' W 000°27'5 9.8
2017-Nov-03 15:00N 37°30' W 000°22'5 9.8
2017-Nov-03 14:27N 37°33' W 000°16'169 9.0
2017-Nov-02 19:46N 39°22' E 002°27'2 9.3
2017-Nov-02 19:30N 39°24' E 002°29'5 9.4
2017-Nov-02 19:00N 39°27' E 002°33'5 9.4
2017-Nov-02 18:30N 39°31' E 002°37'2 4.2
2017-Nov-02 18:00N 39°33' E 002°38'0 0.0
2017-Nov-02 17:30N 39°33' E 002°38'0 0.0
2017-Nov-02 17:00N 39°33' E 002°38'0 0.0
2017-Nov-02 16:30N 39°33' E 002°38'0 0.0
2017-Nov-02 16:00N 39°33' E 002°38'0 0.0
2017-Nov-02 15:30N 39°33' E 002°38'0 0.0
2017-Nov-02 14:56N 39°33' E 002°38'0 0.0
2017-Nov-02 14:28N 39°33' E 002°38'0 0.0
2017-Nov-02 14:00N 39°33' E 002°38'0 0.0
2017-Nov-02 13:29N 39°33' E 002°38'0 0.0
2017-Nov-02 12:59N 39°33' E 002°38'0 0.0
2017-Nov-02 12:30N 39°33' E 002°38'0 0.0
2017-Nov-02 11:58N 39°33' E 002°38'0 0.0
2017-Nov-02 11:28N 39°33' E 002°38'0 0.0
2017-Nov-02 10:58N 39°33' E 002°38'0 0.0
2017-Nov-02 10:31N 39°33' E 002°38'0 0.0
2017-Nov-02 10:01N 39°33' E 002°38'0 0.0
2017-Nov-02 09:30N 39°33' E 002°38'0 0.0
2017-Nov-02 09:01N 39°33' E 002°38'0 0.0
2017-Nov-02 08:27N 39°33' E 002°38'0 0.0
2017-Nov-02 08:00N 39°33' E 002°38'0 0.0
2017-Nov-02 07:30N 39°33' E 002°38'0 0.0
2017-Nov-02 07:00N 39°33' E 002°38'1 2.7
2017-Nov-02 06:30N 39°32' E 002°38'510.9
2017-Nov-02 06:00N 39°28' E 002°34'5 9.8
2017-Nov-02 05:30N 39°27' E 002°28'  
2017-Oct-31 00:26N 42°52' E 004°19'  

Dump ship's entire track history